createdAt,value
2023-05-18T00:00:24.644Z,1028.8
2023-05-18T00:01:24.653Z,1028.78
2023-05-18T00:02:24.769Z,1028.82
2023-05-18T00:03:25.071Z,1028.81
2023-05-18T00:04:24.735Z,1028.77
2023-05-18T00:05:24.652Z,1028.83
2023-05-18T00:06:24.664Z,1028.86
2023-05-18T00:07:24.639Z,1028.86
2023-05-18T00:08:24.656Z,1028.91
2023-05-18T00:09:24.653Z,1028.88
2023-05-18T00:10:24.688Z,1028.93
2023-05-18T00:11:24.644Z,1028.95
2023-05-18T00:12:24.662Z,1028.93
2023-05-18T00:13:24.644Z,1028.95
2023-05-18T00:14:24.652Z,1028.91
2023-05-18T00:15:24.652Z,1028.93
2023-05-18T00:16:24.691Z,1028.97
2023-05-18T00:17:24.686Z,1028.94
2023-05-18T00:18:24.642Z,1028.96
2023-05-18T00:19:24.728Z,1028.91
2023-05-18T00:20:24.658Z,1028.92
2023-05-18T00:21:24.749Z,1028.91
2023-05-18T00:22:24.653Z,1028.91
2023-05-18T00:23:24.646Z,1028.88
2023-05-18T00:24:24.649Z,1028.94
2023-05-18T00:25:24.653Z,1028.89
2023-05-18T00:26:24.642Z,1028.88
2023-05-18T00:27:24.638Z,1028.84
2023-05-18T00:28:24.639Z,1028.87
2023-05-18T00:29:24.658Z,1028.85
2023-05-18T00:30:24.636Z,1028.89
2023-05-18T00:31:24.690Z,1028.87
2023-05-18T00:32:24.678Z,1028.86
2023-05-18T00:33:24.657Z,1028.85
2023-05-18T00:34:24.688Z,1028.82
2023-05-18T00:35:24.663Z,1028.82
2023-05-18T00:36:24.658Z,1028.8
2023-05-18T00:37:24.650Z,1028.8
2023-05-18T00:38:24.651Z,1028.82
2023-05-18T00:39:24.663Z,1028.82
2023-05-18T00:40:24.662Z,1028.79
2023-05-18T00:41:24.652Z,1028.8
2023-05-18T00:42:24.659Z,1028.8
2023-05-18T00:43:24.656Z,1028.81
2023-05-18T00:44:24.665Z,1028.82
2023-05-18T00:45:24.657Z,1028.78
2023-05-18T00:46:24.681Z,1028.81
2023-05-18T00:47:24.655Z,1028.79
2023-05-18T00:48:24.649Z,1028.82
2023-05-18T00:49:24.662Z,1028.77
2023-05-18T00:50:24.670Z,1028.79
2023-05-18T00:51:24.725Z,1028.77
2023-05-18T00:52:24.706Z,1028.76
2023-05-18T00:53:24.665Z,1028.7
2023-05-18T00:54:24.661Z,1028.73
2023-05-18T00:55:24.668Z,1028.73
2023-05-18T00:56:24.651Z,1028.71
2023-05-18T00:57:24.649Z,1028.73
2023-05-18T00:58:24.659Z,1028.74
2023-05-18T00:59:24.664Z,1028.76
2023-05-18T01:00:24.730Z,1028.76
2023-05-18T01:01:24.674Z,1028.75
2023-05-18T01:02:24.779Z,1028.76
2023-05-18T01:03:24.692Z,1028.77
2023-05-18T01:04:24.669Z,1028.79
2023-05-18T01:05:24.664Z,1028.82
2023-05-18T01:06:24.670Z,1028.81
2023-05-18T01:07:24.657Z,1028.81
2023-05-18T01:08:24.644Z,1028.8
2023-05-18T01:09:24.664Z,1028.79
2023-05-18T01:10:24.651Z,1028.8
2023-05-18T01:11:24.742Z,1028.81
2023-05-18T01:12:24.658Z,1028.82
2023-05-18T01:13:24.642Z,1028.8
2023-05-18T01:14:24.663Z,1028.81
2023-05-18T01:15:24.650Z,1028.8
2023-05-18T01:16:24.689Z,1028.83
2023-05-18T01:17:24.664Z,1028.82
2023-05-18T01:18:24.659Z,1028.88
2023-05-18T01:19:24.740Z,1028.89
2023-05-18T01:20:24.670Z,1028.89
2023-05-18T01:21:24.665Z,1028.93
2023-05-18T01:22:24.647Z,1028.94
2023-05-18T01:23:24.660Z,1028.92
2023-05-18T01:24:24.662Z,1028.94
2023-05-18T01:25:24.650Z,1028.92
2023-05-18T01:26:24.717Z,1028.93
2023-05-18T01:27:24.656Z,1028.95
2023-05-18T01:28:24.648Z,1028.94
2023-05-18T01:29:24.657Z,1028.99
2023-05-18T01:30:24.643Z,1028.98
2023-05-18T01:31:24.764Z,1028.97
2023-05-18T01:32:24.664Z,1028.95
2023-05-18T01:33:24.705Z,1028.98
2023-05-18T01:34:24.677Z,1028.99
2023-05-18T01:35:24.658Z,1029.03
2023-05-18T01:36:24.662Z,1029
2023-05-18T01:37:24.644Z,1029.06
2023-05-18T01:38:24.655Z,1029.05
2023-05-18T01:39:24.664Z,1029.08
2023-05-18T01:40:24.649Z,1029.1
2023-05-18T01:41:24.645Z,1029.11
2023-05-18T01:42:24.649Z,1029.09
2023-05-18T01:43:24.647Z,1029.12
2023-05-18T01:44:24.656Z,1029.08
2023-05-18T01:45:24.649Z,1029.1
2023-05-18T01:46:24.703Z,1029.15
2023-05-18T01:47:24.675Z,1029.14
2023-05-18T01:48:24.649Z,1029.14
2023-05-18T01:49:24.658Z,1029.14
2023-05-18T01:50:24.663Z,1029.15
2023-05-18T01:51:24.681Z,1029.18
2023-05-18T01:52:24.654Z,1029.16
2023-05-18T01:53:24.656Z,1029.19
2023-05-18T01:54:24.682Z,1029.11
2023-05-18T01:55:24.651Z,1029.17
2023-05-18T01:56:24.645Z,1029.17
2023-05-18T01:57:24.656Z,1029.21
2023-05-18T01:58:24.666Z,1029.19
2023-05-18T01:59:24.656Z,1029.18
2023-05-18T02:00:24.643Z,1029.18
2023-05-18T02:01:24.672Z,1029.2
2023-05-18T02:02:24.957Z,1029.17
2023-05-18T02:03:24.763Z,1029.15
2023-05-18T02:04:24.661Z,1029.2
2023-05-18T02:05:24.664Z,1029.16
2023-05-18T02:06:24.664Z,1029.19
2023-05-18T02:07:24.656Z,1029.19
2023-05-18T02:08:24.652Z,1029.22
2023-05-18T02:09:24.665Z,1029.21
2023-05-18T02:10:24.666Z,1029.2
2023-05-18T02:11:24.671Z,1029.21
2023-05-18T02:12:24.655Z,1029.16
2023-05-18T02:13:24.648Z,1029.18
2023-05-18T02:14:24.658Z,1029.2
2023-05-18T02:15:24.663Z,1029.2
2023-05-18T02:16:24.704Z,1029.19
2023-05-18T02:17:24.692Z,1029.17
2023-05-18T02:18:24.647Z,1029.19
2023-05-18T02:19:24.747Z,1029.22
2023-05-18T02:20:24.672Z,1029.19
2023-05-18T02:21:24.659Z,1029.21
2023-05-18T02:22:24.655Z,1029.21
2023-05-18T02:23:24.844Z,1029.22
2023-05-18T02:24:24.658Z,1029.22
2023-05-18T02:25:24.652Z,1029.22
2023-05-18T02:26:24.637Z,1029.19
2023-05-18T02:27:24.648Z,1029.21
2023-05-18T02:28:24.647Z,1029.2
2023-05-18T02:29:24.658Z,1029.18
2023-05-18T02:30:24.654Z,1029.21
2023-05-18T02:31:24.668Z,1029.23
2023-05-18T02:32:24.692Z,1029.22
2023-05-18T02:33:24.652Z,1029.25
2023-05-18T02:34:24.689Z,1029.26
2023-05-18T02:35:24.645Z,1029.24
2023-05-18T02:36:24.661Z,1029.23
2023-05-18T02:37:24.657Z,1029.22
2023-05-18T02:38:24.656Z,1029.23
2023-05-18T02:39:24.652Z,1029.18
2023-05-18T02:40:24.648Z,1029.2
2023-05-18T02:41:24.648Z,1029.23
2023-05-18T02:42:24.640Z,1029.19
2023-05-18T02:43:24.654Z,1029.23
2023-05-18T02:44:24.663Z,1029.22
2023-05-18T02:45:24.652Z,1029.21
2023-05-18T02:46:24.801Z,1029.17
2023-05-18T02:47:24.684Z,1029.19
2023-05-18T02:48:24.655Z,1029.23
2023-05-18T02:49:24.645Z,1029.19
2023-05-18T02:50:24.660Z,1029.23
2023-05-18T02:51:24.687Z,1029.24
2023-05-18T02:52:24.645Z,1029.25
2023-05-18T02:53:24.656Z,1029.21
2023-05-18T02:54:24.677Z,1029.26
2023-05-18T02:55:24.647Z,1029.25
2023-05-18T02:56:24.673Z,1029.25
2023-05-18T02:57:24.650Z,1029.24
2023-05-18T02:58:24.655Z,1029.29
2023-05-18T02:59:24.657Z,1029.28
2023-05-18T03:00:24.641Z,1029.33
2023-05-18T03:01:24.704Z,1029.25
2023-05-18T03:02:24.719Z,1029.3
2023-05-18T03:03:24.719Z,1029.31
2023-05-18T03:04:24.643Z,1029.34
2023-05-18T03:05:24.688Z,1029.31
2023-05-18T03:06:24.667Z,1029.29
2023-05-18T03:07:24.688Z,1029.29
2023-05-18T03:08:24.674Z,1029.29
2023-05-18T03:09:24.655Z,1029.34
2023-05-18T03:10:24.653Z,1029.34
2023-05-18T03:11:24.657Z,1029.36
2023-05-18T03:12:24.646Z,1029.34
2023-05-18T03:13:24.658Z,1029.35
2023-05-18T03:14:24.650Z,1029.34
2023-05-18T03:15:24.661Z,1029.34
2023-05-18T03:16:24.682Z,1029.38
2023-05-18T03:17:24.658Z,1029.35
2023-05-18T03:18:24.657Z,1029.31
2023-05-18T03:19:24.798Z,1029.34
2023-05-18T03:20:24.660Z,1029.31
2023-05-18T03:21:24.661Z,1029.39
2023-05-18T03:22:24.647Z,1029.36
2023-05-18T03:23:24.650Z,1029.41
2023-05-18T03:24:24.655Z,1029.41
2023-05-18T03:25:24.648Z,1029.42
2023-05-18T03:26:24.658Z,1029.4
2023-05-18T03:27:24.651Z,1029.41
2023-05-18T03:28:24.662Z,1029.4
2023-05-18T03:29:24.669Z,1029.42
2023-05-18T03:30:24.644Z,1029.43
2023-05-18T03:31:24.763Z,1029.44
2023-05-18T03:32:24.663Z,1029.44
2023-05-18T03:33:24.660Z,1029.45
2023-05-18T03:34:24.658Z,1029.4
2023-05-18T03:35:24.666Z,1029.43
2023-05-18T03:36:24.661Z,1029.41
2023-05-18T03:37:24.659Z,1029.47
2023-05-18T03:38:24.684Z,1029.41
2023-05-18T03:39:24.642Z,1029.36
2023-05-18T03:40:24.648Z,1029.45
2023-05-18T03:41:24.650Z,1029.44
2023-05-18T03:42:24.658Z,1029.41
2023-05-18T03:43:24.672Z,1029.47
2023-05-18T03:44:24.658Z,1029.47
2023-05-18T03:45:24.666Z,1029.52
2023-05-18T03:46:24.721Z,1029.49
2023-05-18T03:47:24.664Z,1029.53
2023-05-18T03:48:24.665Z,1029.51
2023-05-18T03:49:24.654Z,1029.5
2023-05-18T03:50:24.665Z,1029.51
2023-05-18T03:51:24.678Z,1029.51
2023-05-18T03:52:24.652Z,1029.52
2023-05-18T03:53:24.671Z,1029.49
2023-05-18T03:54:24.665Z,1029.5
2023-05-18T03:55:24.667Z,1029.56
2023-05-18T03:56:24.659Z,1029.55
2023-05-18T03:57:24.668Z,1029.56
2023-05-18T03:58:24.669Z,1029.56
2023-05-18T03:59:24.669Z,1029.57
2023-05-18T04:00:24.653Z,1029.59
2023-05-18T04:01:24.658Z,1029.57
2023-05-18T04:02:24.757Z,1029.55
2023-05-18T04:03:24.774Z,1029.59
2023-05-18T04:04:24.726Z,1029.59
2023-05-18T04:05:24.666Z,1029.58
2023-05-18T04:06:24.672Z,1029.61
2023-05-18T04:07:24.663Z,1029.62
2023-05-18T04:08:24.658Z,1029.62
2023-05-18T04:09:24.652Z,1029.61
2023-05-18T04:10:24.645Z,1029.62
2023-05-18T04:11:24.660Z,1029.61
2023-05-18T04:12:24.668Z,1029.65
2023-05-18T04:13:24.662Z,1029.63
2023-05-18T04:14:24.665Z,1029.63
2023-05-18T04:15:24.653Z,1029.68
2023-05-18T04:16:24.686Z,1029.68
2023-05-18T04:17:24.678Z,1029.72
2023-05-18T04:18:24.664Z,1029.72
2023-05-18T04:19:24.720Z,1029.72
2023-05-18T04:20:24.663Z,1029.7
2023-05-18T04:21:24.675Z,1029.72
2023-05-18T04:22:24.665Z,1029.72
2023-05-18T04:23:24.660Z,1029.7
2023-05-18T04:24:24.660Z,1029.7
2023-05-18T04:25:24.660Z,1029.72
2023-05-18T04:26:24.658Z,1029.67
2023-05-18T04:27:24.660Z,1029.72
2023-05-18T04:28:24.655Z,1029.73
2023-05-18T04:29:24.660Z,1029.71
2023-05-18T04:30:24.642Z,1029.71
2023-05-18T04:31:24.689Z,1029.72
2023-05-18T04:32:24.774Z,1029.71
2023-05-18T04:33:24.657Z,1029.73
2023-05-18T04:34:24.661Z,1029.77
2023-05-18T04:35:24.665Z,1029.74
2023-05-18T04:36:24.701Z,1029.78
2023-05-18T04:37:24.656Z,1029.76
2023-05-18T04:38:24.650Z,1029.81
2023-05-18T04:39:24.652Z,1029.78
2023-05-18T04:40:24.650Z,1029.81
2023-05-18T04:41:24.673Z,1029.79
2023-05-18T04:42:24.646Z,1029.79
2023-05-18T04:43:24.656Z,1029.8
2023-05-18T04:44:24.654Z,1029.8
2023-05-18T04:45:24.652Z,1029.77
2023-05-18T04:46:24.733Z,1029.81
2023-05-18T04:47:24.740Z,1029.84
2023-05-18T04:48:24.657Z,1029.82
2023-05-18T04:49:24.655Z,1029.84
2023-05-18T04:50:24.651Z,1029.84
2023-05-18T04:51:24.672Z,1029.85
2023-05-18T04:52:24.655Z,1029.84
2023-05-18T04:53:24.655Z,1029.87
2023-05-18T04:54:24.658Z,1029.89
2023-05-18T04:55:24.656Z,1029.89
2023-05-18T04:56:24.659Z,1029.91
2023-05-18T04:57:24.662Z,1029.88
2023-05-18T04:58:24.685Z,1029.88
2023-05-18T04:59:24.654Z,1029.89
2023-05-18T05:00:24.669Z,1029.9
2023-05-18T05:01:24.688Z,1029.9
2023-05-18T05:02:24.743Z,1029.89
2023-05-18T05:03:24.796Z,1029.85
2023-05-18T05:04:24.654Z,1029.81
2023-05-18T05:05:24.668Z,1029.81
2023-05-18T05:06:24.655Z,1029.77
2023-05-18T05:07:24.649Z,1029.77
2023-05-18T05:08:24.652Z,1029.77
2023-05-18T05:09:24.664Z,1029.73
2023-05-18T05:10:24.644Z,1029.7
2023-05-18T05:11:24.650Z,1029.7
2023-05-18T05:12:24.639Z,1029.74
2023-05-18T05:13:24.651Z,1029.71
2023-05-18T05:14:24.656Z,1029.72
2023-05-18T05:15:24.658Z,1029.72
2023-05-18T05:16:24.659Z,1029.71
2023-05-18T05:17:24.684Z,1029.67
2023-05-18T05:18:24.636Z,1029.73
2023-05-18T05:19:24.763Z,1029.73
2023-05-18T05:20:24.646Z,1029.69
2023-05-18T05:21:24.664Z,1029.73
2023-05-18T05:22:24.676Z,1029.73
2023-05-18T05:23:24.643Z,1029.71
2023-05-18T05:24:24.651Z,1029.7
2023-05-18T05:25:24.643Z,1029.71
2023-05-18T05:26:24.645Z,1029.71
2023-05-18T05:27:24.651Z,1029.68
2023-05-18T05:28:24.658Z,1029.69
2023-05-18T05:29:24.656Z,1029.7
2023-05-18T05:30:24.636Z,1029.75
2023-05-18T05:31:24.671Z,1029.73
2023-05-18T05:32:24.681Z,1029.76
2023-05-18T05:33:24.653Z,1029.72
2023-05-18T05:34:24.657Z,1029.78
2023-05-18T05:35:24.652Z,1029.78
2023-05-18T05:36:24.658Z,1029.79
2023-05-18T05:37:24.662Z,1029.81
2023-05-18T05:38:24.644Z,1029.79
2023-05-18T05:39:24.641Z,1029.82
2023-05-18T05:40:24.633Z,1029.87
2023-05-18T05:41:24.652Z,1029.86
2023-05-18T05:42:24.644Z,1029.88
2023-05-18T05:43:24.658Z,1029.85
2023-05-18T05:44:24.646Z,1029.9
2023-05-18T05:45:24.652Z,1029.86
2023-05-18T05:46:24.670Z,1029.87
2023-05-18T05:47:24.658Z,1029.9
2023-05-18T05:48:24.653Z,1029.89
2023-05-18T05:49:24.647Z,1029.9
2023-05-18T05:50:24.651Z,1029.92
2023-05-18T05:51:24.665Z,1029.89
2023-05-18T05:52:24.655Z,1029.91
2023-05-18T05:53:24.655Z,1029.92
2023-05-18T05:54:24.664Z,1029.88
2023-05-18T05:55:24.648Z,1029.89
2023-05-18T05:56:24.644Z,1029.96
2023-05-18T05:57:24.664Z,1029.95
2023-05-18T05:58:24.654Z,1029.96
2023-05-18T05:59:24.656Z,1029.97
2023-05-18T06:00:24.690Z,1029.94
2023-05-18T06:01:24.645Z,1029.96
2023-05-18T06:02:24.703Z,1029.94
2023-05-18T06:03:24.753Z,1029.94
2023-05-18T06:04:24.679Z,1029.93
2023-05-18T06:05:24.657Z,1029.94
2023-05-18T06:06:24.662Z,1029.91
2023-05-18T06:07:24.675Z,1029.95
2023-05-18T06:08:24.646Z,1029.95
2023-05-18T06:09:24.652Z,1029.94
2023-05-18T06:10:24.680Z,1029.97
2023-05-18T06:11:24.661Z,1029.97
2023-05-18T06:12:24.649Z,1029.97
2023-05-18T06:13:24.649Z,1029.97
2023-05-18T06:14:24.646Z,1029.98
2023-05-18T06:15:24.650Z,1029.96
2023-05-18T06:16:24.714Z,1029.96
2023-05-18T06:17:24.707Z,1029.97
2023-05-18T06:18:24.652Z,1029.93
2023-05-18T06:19:24.844Z,1029.95
2023-05-18T06:20:24.646Z,1029.96
2023-05-18T06:21:24.661Z,1029.93
2023-05-18T06:22:24.651Z,1029.91
2023-05-18T06:23:24.649Z,1029.96
2023-05-18T06:24:24.646Z,1029.93
2023-05-18T06:25:24.653Z,1029.97
2023-05-18T06:26:24.654Z,1029.98
2023-05-18T06:27:24.645Z,1029.99
2023-05-18T06:28:24.648Z,1029.98
2023-05-18T06:29:24.641Z,1030.05
2023-05-18T06:30:24.643Z,1029.98
2023-05-18T06:31:24.672Z,1030.02
2023-05-18T06:32:24.712Z,1030.06
2023-05-18T06:33:24.653Z,1030.1
2023-05-18T06:34:24.645Z,1030.06
2023-05-18T06:35:24.670Z,1030.09
2023-05-18T06:36:24.667Z,1030.13
2023-05-18T06:37:24.691Z,1030.13
2023-05-18T06:38:24.664Z,1030.11
2023-05-18T06:39:24.663Z,1030.14
2023-05-18T06:40:24.650Z,1030.12
2023-05-18T06:41:24.641Z,1030.08
2023-05-18T06:42:24.653Z,1030.14
2023-05-18T06:43:24.645Z,1030.13
2023-05-18T06:44:24.674Z,1030.13
2023-05-18T06:45:24.664Z,1030.13
2023-05-18T06:46:24.695Z,1030.16
2023-05-18T06:47:24.678Z,1030.17
2023-05-18T06:48:24.656Z,1030.18
2023-05-18T06:49:24.662Z,1030.25
2023-05-18T06:50:24.660Z,1030.23
2023-05-18T06:51:24.679Z,1030.25
2023-05-18T06:52:26.347Z,1030.23
2023-05-18T06:53:24.662Z,1030.2
2023-05-18T06:54:24.648Z,1030.28
2023-05-18T06:55:24.659Z,1030.29
2023-05-18T06:56:24.662Z,1030.28
2023-05-18T06:57:24.652Z,1030.25
2023-05-18T06:58:24.675Z,1030.28
2023-05-18T06:59:24.657Z,1030.31
2023-05-18T07:00:24.644Z,1030.27
2023-05-18T07:01:24.697Z,1030.31
2023-05-18T07:02:24.697Z,1030.36
2023-05-18T07:03:24.713Z,1030.36
2023-05-18T07:04:24.660Z,1030.34
2023-05-18T07:05:24.665Z,1030.35
2023-05-18T07:06:24.673Z,1030.29
2023-05-18T07:07:24.664Z,1030.33
2023-05-18T07:08:24.653Z,1030.33
2023-05-18T07:09:24.659Z,1030.22
2023-05-18T07:10:24.654Z,1030.23
2023-05-18T07:11:24.661Z,1030.19
2023-05-18T07:12:24.652Z,1030.24
2023-05-18T07:13:24.651Z,1030.17
2023-05-18T07:14:24.646Z,1030.23
2023-05-18T07:15:24.655Z,1030.22
2023-05-18T07:16:24.702Z,1030.23
2023-05-18T07:17:24.677Z,1030.22
2023-05-18T07:18:24.644Z,1030.23
2023-05-18T07:19:24.789Z,1030.25
2023-05-18T07:20:26.316Z,1030.19
2023-05-18T07:21:24.658Z,1030.23
2023-05-18T07:22:24.650Z,1030.23
2023-05-18T07:23:24.646Z,1030.24
2023-05-18T07:24:24.644Z,1030.26
2023-05-18T07:25:24.658Z,1030.24
2023-05-18T07:26:24.661Z,1030.24
2023-05-18T07:27:24.655Z,1030.21
2023-05-18T07:28:24.648Z,1030.17
2023-05-18T07:29:24.662Z,1030.14
2023-05-18T07:30:24.674Z,1030.19
2023-05-18T07:31:24.736Z,1030.13
2023-05-18T07:32:24.657Z,1030.14
2023-05-18T07:33:24.656Z,1030.16
2023-05-18T07:34:24.658Z,1030.11
2023-05-18T07:35:24.658Z,1030.17
2023-05-18T07:36:24.668Z,1030.15
2023-05-18T07:37:24.645Z,1030.19
2023-05-18T07:38:24.660Z,1030.15
2023-05-18T07:39:24.658Z,1030.16
2023-05-18T07:40:24.658Z,1030.16
2023-05-18T07:41:24.652Z,1030.15
2023-05-18T07:42:24.657Z,1030.14
2023-05-18T07:43:24.655Z,1030.17
2023-05-18T07:44:24.668Z,1030.18
2023-05-18T07:45:24.663Z,1030.21
2023-05-18T07:46:24.676Z,1030.21
2023-05-18T07:47:24.667Z,1030.25
2023-05-18T07:48:24.654Z,1030.19
2023-05-18T07:49:24.661Z,1030.2
2023-05-18T07:50:24.660Z,1030.22
2023-05-18T07:51:24.674Z,1030.24
2023-05-18T07:52:24.664Z,1030.2
2023-05-18T07:53:24.662Z,1030.18
2023-05-18T07:54:24.669Z,1030.18
2023-05-18T07:55:24.669Z,1030.16
2023-05-18T07:56:24.669Z,1030.14
2023-05-18T07:57:24.655Z,1030.19
2023-05-18T07:58:24.662Z,1030.19
2023-05-18T07:59:24.659Z,1030.22
2023-05-18T08:00:24.706Z,1030.24
2023-05-18T08:01:24.650Z,1030.2
2023-05-18T08:02:24.750Z,1030.23
2023-05-18T08:03:24.698Z,1030.21
2023-05-18T08:04:24.710Z,1030.21
2023-05-18T08:05:24.657Z,1030.23
2023-05-18T08:06:24.660Z,1030.24
2023-05-18T08:07:24.655Z,1030.26
2023-05-18T08:08:24.657Z,1030.26
2023-05-18T08:09:24.659Z,1030.28
2023-05-18T08:10:24.713Z,1030.25
2023-05-18T08:11:24.646Z,1030.33
2023-05-18T08:12:24.664Z,1030.28
2023-05-18T08:13:24.664Z,1030.34
2023-05-18T08:14:24.677Z,1030.32
2023-05-18T08:15:24.649Z,1030.31
2023-05-18T08:16:24.670Z,1030.23
2023-05-18T08:17:24.729Z,1030.22
2023-05-18T08:18:24.665Z,1030.23
2023-05-18T08:19:24.769Z,1030.25
2023-05-18T08:20:24.690Z,1030.26
2023-05-18T08:21:24.672Z,1030.26
2023-05-18T08:22:24.661Z,1030.34
2023-05-18T08:23:24.651Z,1030.29
2023-05-18T08:24:24.652Z,1030.23
2023-05-18T08:25:24.652Z,1030.23
2023-05-18T08:26:24.654Z,1030.18
2023-05-18T08:27:24.659Z,1030.23
2023-05-18T08:28:24.651Z,1030.26
2023-05-18T08:29:24.648Z,1030.21
2023-05-18T08:30:24.705Z,1030.23
2023-05-18T08:31:24.677Z,1030.26
2023-05-18T08:32:24.758Z,1030.18
2023-05-18T08:33:24.658Z,1030.18
2023-05-18T08:34:24.657Z,1030.2
2023-05-18T08:35:24.676Z,1030.21
2023-05-18T08:36:24.664Z,1030.13
2023-05-18T08:37:24.656Z,1030.11
2023-05-18T08:38:24.663Z,1030.11
2023-05-18T08:39:24.654Z,1030.14
2023-05-18T08:40:24.766Z,1030.16
2023-05-18T08:41:24.657Z,1030.15
2023-05-18T08:42:29.581Z,1030.17
2023-05-18T08:43:24.653Z,1030.16
2023-05-18T08:44:24.656Z,1030.11
2023-05-18T08:45:24.656Z,1030.13
2023-05-18T08:46:24.645Z,1030.09
2023-05-18T08:47:24.706Z,1030.11
2023-05-18T08:48:27.187Z,1030.03
2023-05-18T08:49:24.644Z,1030.02
2023-05-18T08:50:24.717Z,1029.99
2023-05-18T08:51:24.680Z,1029.99
2023-05-18T08:52:24.647Z,1029.98
2023-05-18T08:53:24.649Z,1029.98
2023-05-18T08:54:24.662Z,1030.08
2023-05-18T08:55:24.662Z,1029.98
2023-05-18T08:56:24.705Z,1029.99
2023-05-18T08:57:24.656Z,1029.96
2023-05-18T08:58:24.653Z,1030.04
2023-05-18T08:59:24.659Z,1030.05
2023-05-18T09:00:24.915Z,1030.01
2023-05-18T09:01:24.665Z,1029.97
2023-05-18T09:02:24.682Z,1029.94
2023-05-18T09:03:24.663Z,1029.91
2023-05-18T09:04:24.751Z,1029.9
2023-05-18T09:05:24.681Z,1029.87
2023-05-18T09:06:24.667Z,1029.85
2023-05-18T09:07:24.647Z,1029.8
2023-05-18T09:08:24.665Z,1029.8
2023-05-18T09:09:24.665Z,1029.86
2023-05-18T09:10:24.655Z,1029.89
2023-05-18T09:11:24.651Z,1029.84
2023-05-18T09:12:24.876Z,1029.84
2023-05-18T09:13:24.647Z,1029.87
2023-05-18T09:14:24.660Z,1029.88
2023-05-18T09:15:24.650Z,1029.85
2023-05-18T09:16:24.857Z,1029.86
2023-05-18T09:17:24.684Z,1029.82
2023-05-18T09:18:26.819Z,1029.87
2023-05-18T09:19:24.883Z,1029.88
2023-05-18T09:20:24.654Z,1029.87
2023-05-18T09:21:24.659Z,1029.86
2023-05-18T09:22:29.799Z,1029.8
2023-05-18T09:23:28.936Z,1029.88
2023-05-18T09:24:28.916Z,1029.85
2023-05-18T09:25:29.087Z,1029.79
2023-05-18T09:26:28.899Z,1029.78
2023-05-18T09:27:28.925Z,1029.78
2023-05-18T09:28:28.920Z,1029.74
2023-05-18T09:29:29.863Z,1029.77
2023-05-18T09:30:28.894Z,1029.77
2023-05-18T09:31:28.927Z,1029.7
2023-05-18T09:32:29.003Z,1029.82
2023-05-18T09:33:29.024Z,1029.86
2023-05-18T09:34:28.904Z,1029.87
2023-05-18T09:35:29.128Z,1029.79
2023-05-18T09:36:28.912Z,1029.76
2023-05-18T09:37:28.919Z,1029.75
2023-05-18T09:38:28.901Z,1029.79
2023-05-18T09:39:28.924Z,1029.75
2023-05-18T09:40:28.910Z,1029.82
2023-05-18T09:41:28.921Z,1029.81
2023-05-18T09:42:28.909Z,1029.77
2023-05-18T09:43:28.903Z,1029.74
2023-05-18T09:44:28.910Z,1029.81
2023-05-18T09:45:29.149Z,1029.77
2023-05-18T09:46:29.027Z,1029.74
2023-05-18T09:47:28.933Z,1029.75
2023-05-18T09:48:28.920Z,1029.74
2023-05-18T09:49:28.902Z,1029.73
2023-05-18T09:50:28.900Z,1029.74
2023-05-18T09:51:28.910Z,1029.77
2023-05-18T09:52:28.906Z,1029.77
2023-05-18T09:53:28.902Z,1029.76
2023-05-18T09:54:28.907Z,1029.77
2023-05-18T09:55:29.214Z,1029.8
2023-05-18T09:56:28.904Z,1029.78
2023-05-18T09:57:28.904Z,1029.81
2023-05-18T09:58:28.907Z,1029.81
2023-05-18T09:59:28.905Z,1029.79
2023-05-18T10:00:28.908Z,1029.79
2023-05-18T10:01:28.972Z,1029.77
2023-05-18T10:02:28.922Z,1029.74
2023-05-18T10:03:28.907Z,1029.73
2023-05-18T10:04:28.951Z,1029.77
2023-05-18T10:05:29.156Z,1029.78
2023-05-18T10:06:28.912Z,1029.81
2023-05-18T10:07:28.909Z,1029.85
2023-05-18T10:08:28.908Z,1029.85
2023-05-18T10:09:28.926Z,1029.79
2023-05-18T10:10:29.066Z,1029.78
2023-05-18T10:11:28.911Z,1029.77
2023-05-18T10:12:28.905Z,1029.8
2023-05-18T10:13:28.901Z,1029.78
2023-05-18T10:14:31.137Z,1029.8
2023-05-18T10:15:28.983Z,1029.75
2023-05-18T10:16:28.949Z,1029.73
2023-05-18T10:17:29.001Z,1029.71
2023-05-18T10:18:28.908Z,1029.71
2023-05-18T10:19:28.940Z,1029.68
2023-05-18T10:20:29.041Z,1029.71
2023-05-18T10:21:28.914Z,1029.72
2023-05-18T10:22:28.916Z,1029.68
2023-05-18T10:23:28.902Z,1029.76
2023-05-18T10:24:28.907Z,1029.73
2023-05-18T10:25:28.921Z,1029.68
2023-05-18T10:26:28.899Z,1029.65
2023-05-18T10:27:28.889Z,1029.66
2023-05-18T10:28:28.918Z,1029.63
2023-05-18T10:29:28.915Z,1029.61
2023-05-18T10:30:29.089Z,1029.65
2023-05-18T10:31:29.056Z,1029.61
2023-05-18T10:32:28.925Z,1029.58
2023-05-18T10:33:29.921Z,1029.61
2023-05-18T10:34:28.895Z,1029.64
2023-05-18T10:35:28.904Z,1029.59
2023-05-18T10:36:28.922Z,1029.64
2023-05-18T10:37:28.896Z,1029.64
2023-05-18T10:38:28.910Z,1029.62
2023-05-18T10:39:28.904Z,1029.62
2023-05-18T10:40:29.268Z,1029.63
2023-05-18T10:41:28.900Z,1029.65
2023-05-18T10:42:28.907Z,1029.67
2023-05-18T10:43:28.914Z,1029.54
2023-05-18T10:44:28.905Z,1029.68
2023-05-18T10:45:28.905Z,1029.66
2023-05-18T10:46:28.971Z,1029.68
2023-05-18T10:47:29.044Z,1029.65
2023-05-18T10:48:28.972Z,1029.65
2023-05-18T10:49:28.894Z,1029.66
2023-05-18T10:50:29.101Z,1029.68
2023-05-18T10:51:28.957Z,1029.61
2023-05-18T10:52:28.904Z,1029.66
2023-05-18T10:53:28.887Z,1029.65
2023-05-18T10:54:28.915Z,1029.65
2023-05-18T10:55:28.902Z,1029.65
2023-05-18T10:56:28.897Z,1029.63
2023-05-18T10:57:28.916Z,1029.7
2023-05-18T10:58:28.892Z,1029.65
2023-05-18T10:59:28.915Z,1029.64
2023-05-18T11:00:29.031Z,1029.64
2023-05-18T11:01:28.916Z,1029.65
2023-05-18T11:02:28.929Z,1029.66
2023-05-18T11:03:28.964Z,1029.69
2023-05-18T11:04:28.917Z,1029.67
2023-05-18T11:05:28.908Z,1029.63
2023-05-18T11:06:28.918Z,1029.63
2023-05-18T11:07:28.891Z,1029.58
2023-05-18T11:08:28.888Z,1029.58
2023-05-18T11:09:28.897Z,1029.61
2023-05-18T11:10:29.033Z,1029.54
2023-05-18T11:11:28.896Z,1029.52
2023-05-18T11:12:28.906Z,1029.54
2023-05-18T11:13:28.917Z,1029.47
2023-05-18T11:14:28.900Z,1029.48
2023-05-18T11:15:28.910Z,1029.41
2023-05-18T11:16:30.595Z,1029.43
2023-05-18T11:17:28.928Z,1029.47
2023-05-18T11:18:28.905Z,1029.42
2023-05-18T11:19:28.900Z,1029.32
2023-05-18T11:20:28.966Z,1029.35
2023-05-18T11:21:28.915Z,1029.38
2023-05-18T11:22:29.912Z,1029.35
2023-05-18T11:23:28.898Z,1029.36
2023-05-18T11:24:28.906Z,1029.34
2023-05-18T11:25:29.104Z,1029.42
2023-05-18T11:26:28.910Z,1029.44
2023-05-18T11:27:28.907Z,1029.44
2023-05-18T11:28:28.899Z,1029.39
2023-05-18T11:29:28.895Z,1029.39
2023-05-18T11:30:28.887Z,1029.4
2023-05-18T11:31:28.918Z,1029.38
2023-05-18T11:32:30.500Z,1029.34
2023-05-18T11:33:28.930Z,1029.32
2023-05-18T11:34:28.900Z,1029.3
2023-05-18T11:35:28.902Z,1029.31
2023-05-18T11:36:28.904Z,1029.35
2023-05-18T11:37:28.891Z,1029.35
2023-05-18T11:38:28.904Z,1029.31
2023-05-18T11:39:28.920Z,1029.29
2023-05-18T11:40:29.185Z,1029.27
2023-05-18T11:41:28.928Z,1029.25
2023-05-18T11:42:28.890Z,1029.28
2023-05-18T11:43:28.907Z,1029.28
2023-05-18T11:44:28.892Z,1029.25
2023-05-18T11:45:28.923Z,1029.24
2023-05-18T11:46:28.910Z,1029.27
2023-05-18T11:47:28.942Z,1029.23
2023-05-18T11:48:28.945Z,1029.24
2023-05-18T11:49:28.900Z,1029.24
2023-05-18T11:50:29.055Z,1029.22
2023-05-18T11:51:28.918Z,1029.26
2023-05-18T11:52:28.919Z,1029.25
2023-05-18T11:53:28.917Z,1029.25
2023-05-18T11:54:28.922Z,1029.3
2023-05-18T11:55:28.897Z,1029.32
2023-05-18T11:56:28.892Z,1029.27
2023-05-18T11:57:28.915Z,1029.23
2023-05-18T11:58:28.888Z,1029.25
2023-05-18T11:59:28.899Z,1029.22
2023-05-18T12:00:28.984Z,1029.29
2023-05-18T12:01:28.890Z,1029.31
2023-05-18T12:02:29.002Z,1029.27
2023-05-18T12:03:28.939Z,1029.21
2023-05-18T12:04:28.942Z,1029.21
2023-05-18T12:05:28.904Z,1029.18
2023-05-18T12:06:28.910Z,1029.23
2023-05-18T12:07:28.912Z,1029.18